Pahoa, HI

1:11 PM HST on March 29, 2015 (GMT -1000)
Hawaiian Shores Rec. | | Change Station
CLOSE
Current Station
Personal Weather Station
Location: Pahoa, HI
Elevation: 217 ft
Nearby Weather Stations

Elev 217 ft 19.54 °N, 154.90 °W | Updated 3 seconds ago

Overcast
Overcast
79.7 °F
Feels Like 82 °F
N
5.6
Wind Variable Wind from East
Gusts 7.4 mph

Today
High -- | Low -- °F
--% Chance of Precip.
Yesterday
High -- | Low -- °F
Precip. -- in
6:15 AM 6:32 PM
Waxing Gibbous, 75% visible
Pressure 30.13 in
Visibility 8.0 miles
Clouds Mostly Cloudy 3100 ft
Mostly Cloudy 4200 ft
Overcast 5000 ft
Heat Index 82 °F
Dew Point 65 °F
Humidity 61%
Rainfall 0.25 in
Snow Depth Not available.
UV 8.0 out of 12
Pollen Not available.
Air Quality Not available.
Flu Activity Not available.
METAR PHTO 292253Z 12011KT 8SM -RA BKN031 BKN042 OVC050 23/20 A3014 RMK AO2 RAB29 SLP203 P0000 T02330200

More Conditions Fewer Conditions

Pressure 30.13 in
Visibility 8.0 miles
Clouds Mostly Cloudy 3100 ft
Mostly Cloudy 4200 ft
Overcast 5000 ft
Heat Index 82 °F
Dew Point 65 °F
Humidity 61%
Rainfall 0.25 in
Snow Depth Not available.
UV 8.0 out of 12
Pollen Not available.
Air Quality Not available.
Flu Activity Not available.
METAR PHTO 292253Z 12011KT 8SM -RA BKN031 BKN042 OVC050 23/20 A3014 RMK AO2 RAB29 SLP203 P0000 T02330200

More Conditions Fewer Conditions

10-Day Weather Forecast

Almanac

Astronomy

Mar. 29, 2015 Rise Set
Actual Time
Civil Twilight
Nautical Twilight
Astronomical Twilight
Moon
Length of Visible Light
Length of Day
Tomorrow will be .
, % of the Moon is Illuminated

Today's Extremes

State Highs State Lows

Community

WunderPhotos

Upload Photos

1,809,378 photos uploaded!

WunderBlogs® & News

Nearby

Air Quality

  Air Quality AQ Index Pollutant
Not available.

Snow Depth

Station Depth Elevation

Earthquake Activity

City Distance Mag. Time & Date
Minimum magnitude displayed is 2.5.

Coastal Water Temperatures

Place Temperature

Stations

Nearby Weather Stations

Station Location Temp. Windchill Dew Point Humidity Wind Precip. Elev Updated Type